sensor_id;sensor_type;location;lat;lon;timestamp;P1;durP1;ratioP1;P2;durP2;ratioP2
12059;SDS011;6091;51.432;6.880;2022-12-11T00:00:27;4.38;;;3.97;;
12059;SDS011;6091;51.432;6.880;2022-12-11T00:02:56;4.40;;;4.00;;
12059;SDS011;6091;51.432;6.880;2022-12-11T00:05:23;4.50;;;4.10;;
12059;SDS011;6091;51.432;6.880;2022-12-11T00:07:50;4.40;;;4.05;;
12059;SDS011;6091;51.432;6.880;2022-12-11T00:10:18;4.32;;;4.00;;
12059;SDS011;6091;51.432;6.880;2022-12-11T00:12:47;4.30;;;3.90;;
12059;SDS011;6091;51.432;6.880;2022-12-11T00:15:14;4.22;;;3.83;;
12059;SDS011;6091;51.432;6.880;2022-12-11T00:17:41;4.00;;;3.70;;
12059;SDS011;6091;51.432;6.880;2022-12-11T00:20:09;4.38;;;4.03;;
12059;SDS011;6091;51.432;6.880;2022-12-11T00:22:36;4.38;;;3.97;;
12059;SDS011;6091;51.432;6.880;2022-12-11T00:25:03;3.97;;;3.60;;
12059;SDS011;6091;51.432;6.880;2022-12-11T00:27:31;3.88;;;3.58;;
12059;SDS011;6091;51.432;6.880;2022-12-11T00:29:58;4.18;;;3.78;;
12059;SDS011;6091;51.432;6.880;2022-12-11T00:32:25;3.85;;;3.55;;
12059;SDS011;6091;51.432;6.880;2022-12-11T00:34:53;3.83;;;3.53;;
12059;SDS011;6091;51.432;6.880;2022-12-11T00:37:20;4.00;;;3.60;;
12059;SDS011;6091;51.432;6.880;2022-12-11T00:39:48;4.63;;;3.95;;
12059;SDS011;6091;51.432;6.880;2022-12-11T00:42:15;4.05;;;3.65;;
12059;SDS011;6091;51.432;6.880;2022-12-11T00:44:42;4.22;;;3.83;;
12059;SDS011;6091;51.432;6.880;2022-12-11T00:47:09;4.43;;;4.03;;
12059;SDS011;6091;51.432;6.880;2022-12-11T00:49:36;4.38;;;3.97;;
12059;SDS011;6091;51.432;6.880;2022-12-11T00:52:03;3.92;;;3.53;;
12059;SDS011;6091;51.432;6.880;2022-12-11T00:54:30;4.93;;;4.15;;
12059;SDS011;6091;51.432;6.880;2022-12-11T00:56:57;3.50;;;3.22;;
12059;SDS011;6091;51.432;6.880;2022-12-11T00:59:24;4.47;;;4.07;;
12059;SDS011;6091;51.432;6.880;2022-12-11T01:01:53;4.25;;;3.95;;
12059;SDS011;6091;51.432;6.880;2022-12-11T01:04:22;4.25;;;3.85;;
12059;SDS011;6091;51.432;6.880;2022-12-11T01:06:49;4.22;;;3.83;;
12059;SDS011;6091;51.432;6.880;2022-12-11T01:09:16;4.22;;;3.83;;
12059;SDS011;6091;51.432;6.880;2022-12-11T01:12:02;3.90;;;3.60;;
12059;SDS011;6091;51.432;6.880;2022-12-11T01:14:29;4.28;;;3.88;;
12059;SDS011;6091;51.432;6.880;2022-12-11T01:16:56;3.97;;;3.67;;
12059;SDS011;6091;51.432;6.880;2022-12-11T01:19:23;3.80;;;3.50;;
12059;SDS011;6091;51.432;6.880;2022-12-11T01:21:50;4.00;;;3.70;;
12059;SDS011;6091;51.432;6.880;2022-12-11T01:24:17;3.83;;;3.53;;
12059;SDS011;6091;51.432;6.880;2022-12-11T01:26:44;4.00;;;3.60;;
12059;SDS011;6091;51.432;6.880;2022-12-11T01:29:11;3.80;;;3.50;;
12059;SDS011;6091;51.432;6.880;2022-12-11T01:31:38;4.15;;;3.85;;
12059;SDS011;6091;51.432;6.880;2022-12-11T01:34:05;4.15;;;3.75;;
12059;SDS011;6091;51.432;6.880;2022-12-11T01:36:32;4.35;;;3.95;;
12059;SDS011;6091;51.432;6.880;2022-12-11T01:38:59;4.00;;;3.60;;
12059;SDS011;6091;51.432;6.880;2022-12-11T01:41:26;4.50;;;4.10;;
12059;SDS011;6091;51.432;6.880;2022-12-11T01:46:40;3.95;;;3.63;;
12059;SDS011;6091;51.432;6.880;2022-12-11T01:49:10;3.85;;;3.47;;
12059;SDS011;6091;51.432;6.880;2022-12-11T01:52:14;4.38;;;3.97;;
12059;SDS011;6091;51.432;6.880;2022-12-11T01:54:46;3.83;;;3.53;;
12059;SDS011;6091;51.432;6.880;2022-12-11T01:57:15;4.40;;;4.00;;
12059;SDS011;6091;51.432;6.880;2022-12-11T01:59:43;3.95;;;3.63;;
12059;SDS011;6091;51.432;6.880;2022-12-11T02:02:23;4.15;;;3.75;;
12059;SDS011;6091;51.432;6.880;2022-12-11T02:04:57;3.90;;;3.60;;
12059;SDS011;6091;51.432;6.880;2022-12-11T02:07:27;3.75;;;3.45;;
12059;SDS011;6091;51.432;6.880;2022-12-11T02:10:01;4.45;;;4.05;;
12059;SDS011;6091;51.432;6.880;2022-12-11T02:15:26;3.63;;;3.33;;
12059;SDS011;6091;51.432;6.880;2022-12-11T02:18:07;3.97;;;3.60;;
12059;SDS011;6091;51.432;6.880;2022-12-11T02:27:19;3.72;;;3.25;;
12059;SDS011;6091;51.432;6.880;2022-12-11T02:30:22;3.65;;;3.35;;
12059;SDS011;6091;51.432;6.880;2022-12-11T02:32:52;4.03;;;3.72;;
12059;SDS011;6091;51.432;6.880;2022-12-11T02:35:25;3.80;;;3.50;;
12059;SDS011;6091;51.432;6.880;2022-12-11T02:38:02;4.25;;;3.85;;
12059;SDS011;6091;51.432;6.880;2022-12-11T02:40:38;3.92;;;3.63;;
12059;SDS011;6091;51.432;6.880;2022-12-11T02:43:09;4.25;;;3.85;;
12059;SDS011;6091;51.432;6.880;2022-12-11T02:45:39;4.10;;;3.70;;
12059;SDS011;6091;51.432;6.880;2022-12-11T02:48:09;3.95;;;3.60;;
12059;SDS011;6091;51.432;6.880;2022-12-11T02:50:41;4.05;;;3.65;;
12059;SDS011;6091;51.432;6.880;2022-12-11T02:53:15;3.60;;;3.30;;
12059;SDS011;6091;51.432;6.880;2022-12-11T02:55:48;3.72;;;3.42;;
12059;SDS011;6091;51.432;6.880;2022-12-11T02:58:28;3.65;;;3.35;;
12059;SDS011;6091;51.432;6.880;2022-12-11T03:00:58;3.90;;;3.50;;
12059;SDS011;6091;51.432;6.880;2022-12-11T03:03:27;3.92;;;3.53;;
12059;SDS011;6091;51.432;6.880;2022-12-11T03:05:56;3.85;;;3.50;;
12059;SDS011;6091;51.432;6.880;2022-12-11T03:08:23;4.15;;;3.80;;
12059;SDS011;6091;51.432;6.880;2022-12-11T03:10:50;4.28;;;3.88;;
12059;SDS011;6091;51.432;6.880;2022-12-11T03:13:18;3.95;;;3.53;;
12059;SDS011;6091;51.432;6.880;2022-12-11T03:21:42;3.97;;;3.67;;
12059;SDS011;6091;51.432;6.880;2022-12-11T03:27:23;3.60;;;3.30;;
12059;SDS011;6091;51.432;6.880;2022-12-11T03:30:06;4.25;;;3.83;;
12059;SDS011;6091;51.432;6.880;2022-12-11T03:32:57;3.83;;;3.50;;
12059;SDS011;6091;51.432;6.880;2022-12-11T03:35:33;3.70;;;3.40;;
12059;SDS011;6091;51.432;6.880;2022-12-11T03:38:17;4.03;;;3.63;;
12059;SDS011;6091;51.432;6.880;2022-12-11T03:40:52;3.85;;;3.50;;
12059;SDS011;6091;51.432;6.880;2022-12-11T03:43:24;3.58;;;3.28;;
12059;SDS011;6091;51.432;6.880;2022-12-11T03:45:55;3.92;;;3.53;;
12059;SDS011;6091;51.432;6.880;2022-12-11T03:48:25;4.10;;;3.75;;
12059;SDS011;6091;51.432;6.880;2022-12-11T03:50:59;3.92;;;3.53;;
12059;SDS011;6091;51.432;6.880;2022-12-11T03:53:32;3.42;;;3.13;;
12059;SDS011;6091;51.432;6.880;2022-12-11T03:56:02;3.70;;;3.40;;
12059;SDS011;6091;51.432;6.880;2022-12-11T03:58:32;3.95;;;3.58;;
12059;SDS011;6091;51.432;6.880;2022-12-11T04:00:59;4.32;;;3.92;;
12059;SDS011;6091;51.432;6.880;2022-12-11T04:03:26;3.72;;;3.42;;
12059;SDS011;6091;51.432;6.880;2022-12-11T04:05:54;4.20;;;3.80;;
12059;SDS011;6091;51.432;6.880;2022-12-11T04:08:21;3.90;;;3.60;;
12059;SDS011;6091;51.432;6.880;2022-12-11T04:10:49;3.90;;;3.55;;
12059;SDS011;6091;51.432;6.880;2022-12-11T04:13:40;4.07;;;3.67;;
12059;SDS011;6091;51.432;6.880;2022-12-11T04:16:07;3.92;;;3.42;;
12059;SDS011;6091;51.432;6.880;2022-12-11T04:18:35;3.65;;;3.33;;
12059;SDS011;6091;51.432;6.880;2022-12-11T04:21:20;4.10;;;3.70;;
12059;SDS011;6091;51.432;6.880;2022-12-11T04:24:06;3.58;;;3.28;;
12059;SDS011;6091;51.432;6.880;2022-12-11T04:26:41;3.65;;;3.35;;
12059;SDS011;6091;51.432;6.880;2022-12-11T04:29:12;3.83;;;3.22;;
12059;SDS011;6091;51.432;6.880;2022-12-11T04:31:40;4.20;;;3.80;;
12059;SDS011;6091;51.432;6.880;2022-12-11T04:34:07;3.78;;;3.47;;
12059;SDS011;6091;51.432;6.880;2022-12-11T04:36:35;4.07;;;3.42;;
12059;SDS011;6091;51.432;6.880;2022-12-11T04:39:03;4.15;;;3.75;;
12059;SDS011;6091;51.432;6.880;2022-12-11T04:41:31;4.00;;;3.60;;
12059;SDS011;6091;51.432;6.880;2022-12-11T04:43:58;4.30;;;3.90;;
12059;SDS011;6091;51.432;6.880;2022-12-11T04:46:26;4.05;;;3.65;;
12059;SDS011;6091;51.432;6.880;2022-12-11T04:48:53;3.72;;;3.42;;
12059;SDS011;6091;51.432;6.880;2022-12-11T04:51:23;3.92;;;3.60;;
12059;SDS011;6091;51.432;6.880;2022-12-11T04:53:50;4.00;;;3.60;;
12059;SDS011;6091;51.432;6.880;2022-12-11T04:56:18;3.78;;;3.40;;
12059;SDS011;6091;51.432;6.880;2022-12-11T04:58:45;4.13;;;3.72;;
12059;SDS011;6091;51.432;6.880;2022-12-11T05:01:14;4.43;;;3.72;;
12059;SDS011;6091;51.432;6.880;2022-12-11T05:03:45;3.80;;;3.50;;
12059;SDS011;6091;51.432;6.880;2022-12-11T05:06:16;3.80;;;3.45;;
12059;SDS011;6091;51.432;6.880;2022-12-11T05:08:44;3.30;;;3.10;;
12059;SDS011;6091;51.432;6.880;2022-12-11T05:11:12;4.10;;;3.70;;
12059;SDS011;6091;51.432;6.880;2022-12-11T05:13:41;3.90;;;3.50;;
12059;SDS011;6091;51.432;6.880;2022-12-11T05:16:12;3.72;;;3.42;;
12059;SDS011;6091;51.432;6.880;2022-12-11T05:18:43;3.42;;;3.13;;
12059;SDS011;6091;51.432;6.880;2022-12-11T05:21:11;4.00;;;3.70;;
12059;SDS011;6091;51.432;6.880;2022-12-11T05:23:41;3.50;;;3.20;;
12059;SDS011;6091;51.432;6.880;2022-12-11T05:26:13;3.90;;;3.50;;
12059;SDS011;6091;51.432;6.880;2022-12-11T05:28:44;3.55;;;3.20;;
12059;SDS011;6091;51.432;6.880;2022-12-11T05:31:18;4.03;;;3.63;;
12059;SDS011;6091;51.432;6.880;2022-12-11T05:33:51;4.20;;;3.78;;
12059;SDS011;6091;51.432;6.880;2022-12-11T05:36:20;4.10;;;3.72;;
12059;SDS011;6091;51.432;6.880;2022-12-11T05:38:52;4.00;;;3.70;;
12059;SDS011;6091;51.432;6.880;2022-12-11T05:41:21;4.07;;;3.50;;
12059;SDS011;6091;51.432;6.880;2022-12-11T05:43:50;4.10;;;3.70;;
12059;SDS011;6091;51.432;6.880;2022-12-11T05:46:22;4.18;;;3.78;;
12059;SDS011;6091;51.432;6.880;2022-12-11T05:48:53;3.70;;;3.40;;
12059;SDS011;6091;51.432;6.880;2022-12-11T05:51:25;3.78;;;3.35;;
12059;SDS011;6091;51.432;6.880;2022-12-11T05:53:54;4.03;;;3.63;;
12059;SDS011;6091;51.432;6.880;2022-12-11T05:56:24;4.30;;;3.90;;
12059;SDS011;6091;51.432;6.880;2022-12-11T05:59:00;3.78;;;3.47;;
12059;SDS011;6091;51.432;6.880;2022-12-11T06:01:37;3.53;;;3.22;;
12059;SDS011;6091;51.432;6.880;2022-12-11T06:04:08;3.60;;;3.30;;
12059;SDS011;6091;51.432;6.880;2022-12-11T06:06:37;4.15;;;3.75;;
12059;SDS011;6091;51.432;6.880;2022-12-11T06:09:06;3.83;;;3.53;;
12059;SDS011;6091;51.432;6.880;2022-12-11T06:11:33;3.70;;;3.40;;
12059;SDS011;6091;51.432;6.880;2022-12-11T06:14:01;3.72;;;3.35;;
12059;SDS011;6091;51.432;6.880;2022-12-11T06:16:30;3.25;;;3.03;;
12059;SDS011;6091;51.432;6.880;2022-12-11T06:18:58;3.95;;;3.65;;
12059;SDS011;6091;51.432;6.880;2022-12-11T06:21:26;3.75;;;3.45;;
12059;SDS011;6091;51.432;6.880;2022-12-11T06:23:57;3.85;;;3.55;;
12059;SDS011;6091;51.432;6.880;2022-12-11T06:26:27;3.70;;;3.40;;
12059;SDS011;6091;51.432;6.880;2022-12-11T06:28:55;4.20;;;3.80;;
12059;SDS011;6091;51.432;6.880;2022-12-11T06:31:22;3.80;;;3.50;;
12059;SDS011;6091;51.432;6.880;2022-12-11T06:33:49;3.80;;;3.47;;
12059;SDS011;6091;51.432;6.880;2022-12-11T06:36:18;4.00;;;3.65;;
12059;SDS011;6091;51.432;6.880;2022-12-11T06:38:48;4.35;;;3.88;;
12059;SDS011;6091;51.432;6.880;2022-12-11T06:41:16;4.45;;;4.05;;
12059;SDS011;6091;51.432;6.880;2022-12-11T06:43:43;3.65;;;3.35;;
12059;SDS011;6091;51.432;6.880;2022-12-11T06:46:15;4.05;;;3.70;;
12059;SDS011;6091;51.432;6.880;2022-12-11T06:48:45;3.58;;;3.28;;
12059;SDS011;6091;51.432;6.880;2022-12-11T06:51:14;3.92;;;3.33;;
12059;SDS011;6091;51.432;6.880;2022-12-11T06:53:49;3.78;;;3.47;;
12059;SDS011;6091;51.432;6.880;2022-12-11T06:56:18;3.92;;;3.50;;
12059;SDS011;6091;51.432;6.880;2022-12-11T06:58:46;3.75;;;3.45;;
12059;SDS011;6091;51.432;6.880;2022-12-11T07:01:17;3.75;;;3.45;;
12059;SDS011;6091;51.432;6.880;2022-12-11T07:03:53;4.13;;;3.70;;
12059;SDS011;6091;51.432;6.880;2022-12-11T07:06:22;3.67;;;3.38;;
12059;SDS011;6091;51.432;6.880;2022-12-11T07:08:51;3.63;;;3.33;;
12059;SDS011;6091;51.432;6.880;2022-12-11T07:11:19;3.72;;;3.40;;
12059;SDS011;6091;51.432;6.880;2022-12-11T07:13:47;3.65;;;3.30;;
12059;SDS011;6091;51.432;6.880;2022-12-11T07:16:17;4.32;;;3.92;;
12059;SDS011;6091;51.432;6.880;2022-12-11T07:18:46;4.20;;;3.67;;
12059;SDS011;6091;51.432;6.880;2022-12-11T07:21:16;3.35;;;3.05;;
12059;SDS011;6091;51.432;6.880;2022-12-11T07:23:45;3.50;;;3.20;;
12059;SDS011;6091;51.432;6.880;2022-12-11T07:26:14;3.75;;;3.42;;
12059;SDS011;6091;51.432;6.880;2022-12-11T07:28:44;4.00;;;3.67;;
12059;SDS011;6091;51.432;6.880;2022-12-11T07:31:16;3.63;;;3.33;;
12059;SDS011;6091;51.432;6.880;2022-12-11T07:33:52;4.03;;;3.63;;
12059;SDS011;6091;51.432;6.880;2022-12-11T07:36:30;3.78;;;3.47;;
12059;SDS011;6091;51.432;6.880;2022-12-11T07:38:59;3.45;;;3.17;;
12059;SDS011;6091;51.432;6.880;2022-12-11T07:41:27;3.45;;;3.15;;
12059;SDS011;6091;51.432;6.880;2022-12-11T07:43:54;4.13;;;3.72;;
12059;SDS011;6091;51.432;6.880;2022-12-11T07:46:23;3.67;;;3.38;;
12059;SDS011;6091;51.432;6.880;2022-12-11T07:48:53;3.67;;;3.38;;
12059;SDS011;6091;51.432;6.880;2022-12-11T07:51:30;3.63;;;3.30;;
12059;SDS011;6091;51.432;6.880;2022-12-11T07:54:02;3.47;;;3.17;;
12059;SDS011;6091;51.432;6.880;2022-12-11T07:56:37;3.90;;;3.60;;
12059;SDS011;6091;51.432;6.880;2022-12-11T07:59:09;3.25;;;2.95;;
12059;SDS011;6091;51.432;6.880;2022-12-11T08:01:36;3.47;;;3.17;;
12059;SDS011;6091;51.432;6.880;2022-12-11T08:04:06;3.90;;;3.50;;
12059;SDS011;6091;51.432;6.880;2022-12-11T08:06:37;3.55;;;3.22;;
12059;SDS011;6091;51.432;6.880;2022-12-11T08:09:10;3.13;;;2.83;;
12059;SDS011;6091;51.432;6.880;2022-12-11T08:11:49;3.95;;;3.55;;
12059;SDS011;6091;51.432;6.880;2022-12-11T08:14:17;3.78;;;3.45;;
12059;SDS011;6091;51.432;6.880;2022-12-11T08:16:46;3.50;;;3.20;;
12059;SDS011;6091;51.432;6.880;2022-12-11T08:19:14;4.03;;;3.45;;
12059;SDS011;6091;51.432;6.880;2022-12-11T08:21:41;3.20;;;2.90;;
12059;SDS011;6091;51.432;6.880;2022-12-11T08:24:09;3.45;;;3.15;;
12059;SDS011;6091;51.432;6.880;2022-12-11T08:26:36;3.42;;;3.13;;
12059;SDS011;6091;51.432;6.880;2022-12-11T08:29:03;3.88;;;3.58;;
12059;SDS011;6091;51.432;6.880;2022-12-11T08:31:30;3.45;;;3.15;;
12059;SDS011;6091;51.432;6.880;2022-12-11T08:33:58;2.72;;;2.53;;
12059;SDS011;6091;51.432;6.880;2022-12-11T08:36:25;4.07;;;3.78;;
12059;SDS011;6091;51.432;6.880;2022-12-11T08:38:58;3.63;;;3.33;;
12059;SDS011;6091;51.432;6.880;2022-12-11T08:41:26;3.50;;;3.20;;
12059;SDS011;6091;51.432;6.880;2022-12-11T08:43:56;3.15;;;2.95;;
12059;SDS011;6091;51.432;6.880;2022-12-11T08:46:26;3.67;;;3.38;;
12059;SDS011;6091;51.432;6.880;2022-12-11T08:48:57;3.20;;;3.00;;
12059;SDS011;6091;51.432;6.880;2022-12-11T08:51:26;3.38;;;3.08;;
12059;SDS011;6091;51.432;6.880;2022-12-11T08:53:58;3.55;;;3.25;;
12059;SDS011;6091;51.432;6.880;2022-12-11T08:56:26;3.42;;;3.13;;
12059;SDS011;6091;51.432;6.880;2022-12-11T08:58:55;3.55;;;3.13;;
12059;SDS011;6091;51.432;6.880;2022-12-11T09:01:26;3.05;;;2.83;;
12059;SDS011;6091;51.432;6.880;2022-12-11T09:03:56;3.75;;;3.45;;
12059;SDS011;6091;51.432;6.880;2022-12-11T09:06:25;3.70;;;3.28;;
12059;SDS011;6091;51.432;6.880;2022-12-11T09:08:57;3.38;;;3.08;;
12059;SDS011;6091;51.432;6.880;2022-12-11T09:11:28;3.38;;;3.08;;
12059;SDS011;6091;51.432;6.880;2022-12-11T09:14:00;3.42;;;3.13;;
12059;SDS011;6091;51.432;6.880;2022-12-11T09:16:33;2.97;;;2.78;;
12059;SDS011;6091;51.432;6.880;2022-12-11T09:19:10;3.25;;;2.95;;
12059;SDS011;6091;51.432;6.880;2022-12-11T09:21:40;3.30;;;3.00;;
12059;SDS011;6091;51.432;6.880;2022-12-11T09:24:09;3.20;;;2.90;;
12059;SDS011;6091;51.432;6.880;2022-12-11T09:26:41;3.55;;;3.22;;
12059;SDS011;6091;51.432;6.880;2022-12-11T09:29:11;3.80;;;3.47;;
12059;SDS011;6091;51.432;6.880;2022-12-11T09:31:39;3.03;;;2.83;;
12059;SDS011;6091;51.432;6.880;2022-12-11T09:34:10;3.13;;;2.83;;
12059;SDS011;6091;51.432;6.880;2022-12-11T09:36:39;3.25;;;2.95;;
12059;SDS011;6091;51.432;6.880;2022-12-11T09:39:09;3.30;;;3.05;;
12059;SDS011;6091;51.432;6.880;2022-12-11T09:46:59;3.25;;;2.97;;
12059;SDS011;6091;51.432;6.880;2022-12-11T09:49:48;3.13;;;2.92;;
12059;SDS011;6091;51.432;6.880;2022-12-11T09:52:22;3.45;;;2.83;;
12059;SDS011;6091;51.432;6.880;2022-12-11T09:55:00;3.38;;;3.08;;
12059;SDS011;6091;51.432;6.880;2022-12-11T09:57:54;3.00;;;2.80;;
12059;SDS011;6091;51.432;6.880;2022-12-11T10:01:05;3.05;;;2.78;;
12059;SDS011;6091;51.432;6.880;2022-12-11T10:03:46;2.75;;;2.55;;
12059;SDS011;6091;51.432;6.880;2022-12-11T10:06:36;2.72;;;2.53;;
12059;SDS011;6091;51.432;6.880;2022-12-11T10:13:02;2.85;;;2.55;;
12059;SDS011;6091;51.432;6.880;2022-12-11T10:15:48;2.88;;;2.65;;
12059;SDS011;6091;51.432;6.880;2022-12-11T10:18:23;2.95;;;2.75;;
12059;SDS011;6091;51.432;6.880;2022-12-11T10:21:00;2.70;;;2.50;;
12059;SDS011;6091;51.432;6.880;2022-12-11T10:23:30;2.92;;;2.72;;
12059;SDS011;6091;51.432;6.880;2022-12-11T10:26:18;3.10;;;2.58;;
12059;SDS011;6091;51.432;6.880;2022-12-11T10:28:47;2.78;;;2.58;;
12059;SDS011;6091;51.432;6.880;2022-12-11T10:31:18;2.65;;;2.45;;
12059;SDS011;6091;51.432;6.880;2022-12-11T10:34:19;2.60;;;2.40;;
12059;SDS011;6091;51.432;6.880;2022-12-11T10:37:00;2.67;;;2.47;;
12059;SDS011;6091;51.432;6.880;2022-12-11T10:39:30;2.72;;;2.53;;
12059;SDS011;6091;51.432;6.880;2022-12-11T10:41:57;3.08;;;2.78;;
12059;SDS011;6091;51.432;6.880;2022-12-11T10:44:25;2.92;;;2.72;;
12059;SDS011;6091;51.432;6.880;2022-12-11T10:49:35;2.55;;;2.35;;
12059;SDS011;6091;51.432;6.880;2022-12-11T10:52:11;2.75;;;2.55;;
12059;SDS011;6091;51.432;6.880;2022-12-11T10:55:01;2.88;;;2.67;;
12059;SDS011;6091;51.432;6.880;2022-12-11T10:57:43;2.97;;;2.78;;
12059;SDS011;6091;51.432;6.880;2022-12-11T11:00:27;2.47;;;2.28;;
12059;SDS011;6091;51.432;6.880;2022-12-11T11:03:21;3.15;;;2.85;;
12059;SDS011;6091;51.432;6.880;2022-12-11T11:06:11;2.78;;;2.58;;
12059;SDS011;6091;51.432;6.880;2022-12-11T11:08:49;2.65;;;2.45;;
12059;SDS011;6091;51.432;6.880;2022-12-11T11:11:31;2.42;;;2.20;;
12059;SDS011;6091;51.432;6.880;2022-12-11T11:14:16;3.20;;;2.90;;
12059;SDS011;6091;51.432;6.880;2022-12-11T11:16:47;2.70;;;2.50;;
12059;SDS011;6091;51.432;6.880;2022-12-11T11:19:18;2.67;;;2.47;;
12059;SDS011;6091;51.432;6.880;2022-12-11T11:21:52;2.60;;;2.40;;
12059;SDS011;6091;51.432;6.880;2022-12-11T11:27:11;2.50;;;2.30;;
12059;SDS011;6091;51.432;6.880;2022-12-11T11:30:04;2.78;;;2.58;;
12059;SDS011;6091;51.432;6.880;2022-12-11T11:32:53;2.60;;;2.40;;
12059;SDS011;6091;51.432;6.880;2022-12-11T11:35:26;2.63;;;2.42;;
12059;SDS011;6091;51.432;6.880;2022-12-11T11:38:40;2.15;;;2.05;;
12059;SDS011;6091;51.432;6.880;2022-12-11T11:43:57;2.45;;;2.25;;
12059;SDS011;6091;51.432;6.880;2022-12-11T11:49:31;2.28;;;2.10;;
12059;SDS011;6091;51.432;6.880;2022-12-11T11:58:17;2.42;;;2.22;;
12059;SDS011;6091;51.432;6.880;2022-12-11T12:00:53;2.30;;;2.10;;
12059;SDS011;6091;51.432;6.880;2022-12-11T12:03:20;2.70;;;2.50;;
12059;SDS011;6091;51.432;6.880;2022-12-11T12:06:01;2.65;;;2.45;;
12059;SDS011;6091;51.432;6.880;2022-12-11T12:15:23;9.55;;;2.58;;
12059;SDS011;6091;51.432;6.880;2022-12-11T12:24:10;6.38;;;2.60;;
12059;SDS011;6091;51.432;6.880;2022-12-11T12:30:19;3.90;;;2.28;;
12059;SDS011;6091;51.432;6.880;2022-12-11T12:35:57;2.78;;;2.20;;
12059;SDS011;6091;51.432;6.880;2022-12-11T12:44:15;3.90;;;2.80;;
12059;SDS011;6091;51.432;6.880;2022-12-11T12:49:53;3.38;;;2.20;;
12059;SDS011;6091;51.432;6.880;2022-12-11T12:52:28;5.15;;;2.25;;
12059;SDS011;6091;51.432;6.880;2022-12-11T12:55:02;2.40;;;2.13;;
12059;SDS011;6091;51.432;6.880;2022-12-11T12:57:52;2.63;;;2.40;;
12059;SDS011;6091;51.432;6.880;2022-12-11T13:00:36;7.47;;;2.95;;
12059;SDS011;6091;51.432;6.880;2022-12-11T13:03:12;2.28;;;1.95;;
12059;SDS011;6091;51.432;6.880;2022-12-11T13:05:59;2.40;;;2.20;;
12059;SDS011;6091;51.432;6.880;2022-12-11T13:08:47;4.30;;;2.20;;
12059;SDS011;6091;51.432;6.880;2022-12-11T13:11:19;3.50;;;2.20;;
12059;SDS011;6091;51.432;6.880;2022-12-11T13:14:01;2.35;;;2.10;;
12059;SDS011;6091;51.432;6.880;2022-12-11T13:19:48;2.50;;;2.05;;
12059;SDS011;6091;51.432;6.880;2022-12-11T13:22:23;5.05;;;2.28;;
12059;SDS011;6091;51.432;6.880;2022-12-11T13:32:42;2.40;;;2.20;;
12059;SDS011;6091;51.432;6.880;2022-12-11T13:35:31;2.20;;;2.00;;
12059;SDS011;6091;51.432;6.880;2022-12-11T13:38:07;2.28;;;2.08;;
12059;SDS011;6091;51.432;6.880;2022-12-11T13:40:48;2.65;;;2.45;;
12059;SDS011;6091;51.432;6.880;2022-12-11T13:43:25;2.80;;;2.60;;
12059;SDS011;6091;51.432;6.880;2022-12-11T13:46:02;2.58;;;1.90;;
12059;SDS011;6091;51.432;6.880;2022-12-11T13:51:15;2.30;;;2.10;;
12059;SDS011;6091;51.432;6.880;2022-12-11T13:54:05;2.40;;;2.20;;
12059;SDS011;6091;51.432;6.880;2022-12-11T13:59:48;2.42;;;2.22;;
12059;SDS011;6091;51.432;6.880;2022-12-11T14:02:23;2.22;;;2.03;;
12059;SDS011;6091;51.432;6.880;2022-12-11T14:05:01;2.00;;;1.85;;
12059;SDS011;6091;51.432;6.880;2022-12-11T14:07:34;4.32;;;2.28;;
12059;SDS011;6091;51.432;6.880;2022-12-11T14:12:48;2.20;;;2.00;;
12059;SDS011;6091;51.432;6.880;2022-12-11T14:15:27;2.70;;;2.10;;
12059;SDS011;6091;51.432;6.880;2022-12-11T14:17:58;2.10;;;1.80;;
12059;SDS011;6091;51.432;6.880;2022-12-11T14:20:30;2.00;;;1.90;;
12059;SDS011;6091;51.432;6.880;2022-12-11T14:25:51;2.17;;;1.98;;
12059;SDS011;6091;51.432;6.880;2022-12-11T14:28:18;2.30;;;2.10;;
12059;SDS011;6091;51.432;6.880;2022-12-11T14:30:49;1.95;;;1.77;;
12059;SDS011;6091;51.432;6.880;2022-12-11T14:33:19;2.00;;;1.90;;
12059;SDS011;6091;51.432;6.880;2022-12-11T14:35:51;2.33;;;2.15;;
12059;SDS011;6091;51.432;6.880;2022-12-11T14:38:22;2.80;;;2.10;;
12059;SDS011;6091;51.432;6.880;2022-12-11T14:41:00;2.25;;;2.05;;
12059;SDS011;6091;51.432;6.880;2022-12-11T14:43:35;2.25;;;2.00;;
12059;SDS011;6091;51.432;6.880;2022-12-11T14:46:15;2.75;;;2.05;;
12059;SDS011;6091;51.432;6.880;2022-12-11T14:48:49;3.05;;;2.35;;
12059;SDS011;6091;51.432;6.880;2022-12-11T14:51:27;2.28;;;1.80;;
12059;SDS011;6091;51.432;6.880;2022-12-11T14:54:02;2.80;;;2.08;;
12059;SDS011;6091;51.432;6.880;2022-12-11T14:56:31;2.10;;;1.90;;
12059;SDS011;6091;51.432;6.880;2022-12-11T14:59:04;1.90;;;1.80;;
12059;SDS011;6091;51.432;6.880;2022-12-11T15:01:44;2.17;;;1.98;;
12059;SDS011;6091;51.432;6.880;2022-12-11T15:04:30;1.73;;;1.63;;
12059;SDS011;6091;51.432;6.880;2022-12-11T15:06:58;2.35;;;2.15;;
12059;SDS011;6091;51.432;6.880;2022-12-11T15:09:38;2.80;;;2.15;;
12059;SDS011;6091;51.432;6.880;2022-12-11T15:12:09;2.17;;;1.98;;
12059;SDS011;6091;51.432;6.880;2022-12-11T15:14:47;2.28;;;2.05;;
12059;SDS011;6091;51.432;6.880;2022-12-11T15:17:26;2.20;;;2.00;;
12059;SDS011;6091;51.432;6.880;2022-12-11T15:20:07;1.95;;;1.85;;
12059;SDS011;6091;51.432;6.880;2022-12-11T15:22:49;2.00;;;1.77;;
12059;SDS011;6091;51.432;6.880;2022-12-11T15:25:19;1.95;;;1.85;;
12059;SDS011;6091;51.432;6.880;2022-12-11T15:27:55;2.30;;;2.08;;
12059;SDS011;6091;51.432;6.880;2022-12-11T15:30:30;2.53;;;2.28;;
12059;SDS011;6091;51.432;6.880;2022-12-11T15:33:11;2.45;;;2.25;;
12059;SDS011;6091;51.432;6.880;2022-12-11T15:35:54;2.17;;;1.98;;
12059;SDS011;6091;51.432;6.880;2022-12-11T15:38:27;2.30;;;2.10;;
12059;SDS011;6091;51.432;6.880;2022-12-11T15:40:58;2.50;;;2.30;;
12059;SDS011;6091;51.432;6.880;2022-12-11T15:43:27;2.20;;;2.00;;
12059;SDS011;6091;51.432;6.880;2022-12-11T15:45:57;2.67;;;2.47;;
12059;SDS011;6091;51.432;6.880;2022-12-11T15:48:25;2.38;;;2.17;;
12059;SDS011;6091;51.432;6.880;2022-12-11T15:50:52;2.25;;;2.03;;
12059;SDS011;6091;51.432;6.880;2022-12-11T15:53:19;2.80;;;2.00;;
12059;SDS011;6091;51.432;6.880;2022-12-11T15:55:46;2.40;;;1.90;;
12059;SDS011;6091;51.432;6.880;2022-12-11T15:58:14;2.15;;;1.95;;
12059;SDS011;6091;51.432;6.880;2022-12-11T16:00:48;2.20;;;2.00;;
12059;SDS011;6091;51.432;6.880;2022-12-11T16:03:17;2.20;;;2.00;;
12059;SDS011;6091;51.432;6.880;2022-12-11T16:05:48;2.55;;;2.08;;
12059;SDS011;6091;51.432;6.880;2022-12-11T16:08:18;2.80;;;1.77;;
12059;SDS011;6091;51.432;6.880;2022-12-11T16:10:50;3.28;;;1.90;;
12059;SDS011;6091;51.432;6.880;2022-12-11T16:13:20;2.55;;;2.35;;
12059;SDS011;6091;51.432;6.880;2022-12-11T16:15:48;3.10;;;2.50;;
12059;SDS011;6091;51.432;6.880;2022-12-11T16:18:18;3.47;;;2.17;;
12059;SDS011;6091;51.432;6.880;2022-12-11T16:20:48;2.30;;;2.10;;
12059;SDS011;6091;51.432;6.880;2022-12-11T16:23:17;1.98;;;1.88;;
12059;SDS011;6091;51.432;6.880;2022-12-11T16:25:45;2.20;;;2.00;;
12059;SDS011;6091;51.432;6.880;2022-12-11T16:28:14;2.75;;;2.30;;
12059;SDS011;6091;51.432;6.880;2022-12-11T16:30:44;4.13;;;2.03;;
12059;SDS011;6091;51.432;6.880;2022-12-11T16:33:11;3.35;;;2.33;;
12059;SDS011;6091;51.432;6.880;2022-12-11T16:35:39;3.90;;;2.67;;
12059;SDS011;6091;51.432;6.880;2022-12-11T16:38:08;6.15;;;2.83;;
12059;SDS011;6091;51.432;6.880;2022-12-11T16:40:36;2.70;;;2.50;;
12059;SDS011;6091;51.432;6.880;2022-12-11T16:43:04;3.65;;;2.83;;
12059;SDS011;6091;51.432;6.880;2022-12-11T16:45:31;5.97;;;4.63;;
12059;SDS011;6091;51.432;6.880;2022-12-11T16:48:02;6.07;;;3.97;;
12059;SDS011;6091;51.432;6.880;2022-12-11T16:50:30;3.90;;;3.50;;
12059;SDS011;6091;51.432;6.880;2022-12-11T16:52:57;5.20;;;3.05;;
12059;SDS011;6091;51.432;6.880;2022-12-11T16:55:24;4.03;;;2.90;;
12059;SDS011;6091;51.432;6.880;2022-12-11T16:57:52;2.95;;;2.30;;
12059;SDS011;6091;51.432;6.880;2022-12-11T17:00:19;2.80;;;2.58;;
12059;SDS011;6091;51.432;6.880;2022-12-11T17:02:46;2.95;;;2.50;;
12059;SDS011;6091;51.432;6.880;2022-12-11T17:05:14;2.70;;;2.28;;
12059;SDS011;6091;51.432;6.880;2022-12-11T17:07:41;2.60;;;2.40;;
12059;SDS011;6091;51.432;6.880;2022-12-11T17:10:08;3.80;;;2.60;;